Time;durP1;ratioP1;P1;durP2;ratioP2;P2;SDS_P1;SDS_P2;PMS_P1;PMS_P2;Temp;Humidity;BMP_temperature;BMP_pressure;BME280_temperature;BME280_humidity;BME280_pressure;Samples;Min_cycle;Max_cycle;Signal;HPM_P1;HPM_P2
2021/07/14 00:02:21;;;;;;;37.67;32.65;;;;;;;18.73;88.35;98971.47;4990716;28;20035;-70
2021/07/14 00:04:46;;;;;;;34.50;30.02;;;;;;;18.72;88.52;98974.28;4990708;28;20134;-69
2021/07/14 00:07:11;;;;;;;34.50;30.70;;;;;;;18.74;88.33;98972.31;4990318;28;20046;-69
2021/07/14 00:09:38;;;;;;;36.08;30.08;;;;;;;18.71;88.53;98969.94;4990011;28;20026;-69
2021/07/14 00:12:06;;;;;;;32.92;29.42;;;;;;;18.74;88.21;98964.28;4990098;28;20038;-69
2021/07/14 00:17:25;;;;;;;31.13;27.83;;;;;;;18.80;87.99;98966.38;4989880;28;20046;-69
2021/07/14 00:22:36;;;;;;;32.92;27.48;;;;;;;18.78;88.04;98971.91;4989916;28;19929;-68
2021/07/14 00:25:03;;;;;;;35.72;31.80;;;;;;;18.77;87.80;98964.84;4989755;28;20490;-69
2021/07/14 00:27:29;;;;;;;35.63;30.27;;;;;;;18.78;88.04;98968.34;4992003;28;20104;-68
2021/07/14 00:29:56;;;;;;;34.35;28.48;;;;;;;18.78;87.97;98969.22;4990009;28;20515;-70
2021/07/14 00:32:25;;;;;;;33.20;29.80;;;;;;;18.79;87.95;98956.69;4989972;28;20044;-69
2021/07/14 00:34:52;;;;;;;31.77;26.88;;;;;;;18.79;87.83;98967.38;4989831;28;20042;-69
2021/07/14 00:37:21;;;;;;;24.83;22.20;;;;;;;18.83;88.08;98963.44;4989917;28;20041;-68
2021/07/14 00:39:55;;;;;;;22.05;19.95;;;;;;;18.85;87.65;98972.97;4989832;28;20030;-69
2021/07/14 00:42:21;;;;;;;37.75;28.77;;;;;;;18.84;87.58;98951.75;4989566;28;20034;-69
2021/07/14 00:44:47;;;;;;;26.88;23.98;;;;;;;18.79;87.64;98962.03;4990569;28;20045;-65
2021/07/14 00:47:12;;;;;;;41.65;31.83;;;;;;;18.75;88.23;98957.94;4989374;28;20105;-66
2021/07/14 00:49:38;;;;;;;33.15;26.83;;;;;;;18.78;88.50;98955.00;4989555;28;20034;-67
2021/07/14 00:52:03;;;;;;;28.38;24.10;;;;;;;18.78;88.51;98955.88;4989613;28;20061;-66
2021/07/14 00:54:29;;;;;;;21.67;19.48;;;;;;;18.79;88.56;98957.53;4989535;28;20096;-67
2021/07/14 00:56:54;;;;;;;39.95;34.83;;;;;;;18.74;88.08;98950.94;4989571;28;20030;-67
2021/07/14 00:59:20;;;;;;;43.45;35.65;;;;;;;18.73;88.26;98960.78;4989853;28;20026;-66
2021/07/14 01:01:46;;;;;;;38.25;33.13;;;;;;;18.73;88.41;98950.09;4948121;28;20209;-66
2021/07/14 01:04:15;;;;;;;51.90;42.88;;;;;;;18.71;88.43;98948.56;4990534;28;20121;-67
2021/07/14 01:06:50;;;;;;;45.28;39.95;;;;;;;18.70;88.40;98953.03;4990072;28;20027;-67
2021/07/14 01:09:17;;;;;;;48.42;39.47;;;;;;;18.65;88.78;98960.66;4989407;28;20164;-67
2021/07/14 01:11:47;;;;;;;41.58;37.13;;;;;;;18.67;88.43;98948.84;4989677;28;20061;-66
2021/07/14 01:14:25;;;;;;;46.42;41.30;;;;;;;18.63;88.60;98949.28;4989527;28;20069;-68
2021/07/14 01:17:04;;;;;;;42.55;37.40;;;;;;;18.64;88.36;98954.47;4989200;28;20037;-68
2021/07/14 01:19:35;;;;;;;44.58;39.70;;;;;;;18.63;88.47;98955.50;4989318;28;20027;-66
2021/07/14 01:22:12;;;;;;;44.25;38.65;;;;;;;18.64;88.58;98959.81;5016591;28;20042;-68
2021/07/14 01:25:01;;;;;;;44.80;39.97;;;;;;;18.67;88.48;98961.34;5028718;28;20489;-67
2021/07/14 01:27:34;;;;;;;42.42;37.42;;;;;;;18.64;88.39;98959.00;5028136;28;20515;-68
2021/07/14 01:30:02;;;;;;;43.50;38.85;;;;;;;18.64;88.38;98948.31;5029005;28;20049;-68
2021/07/14 01:32:29;;;;;;;53.08;42.63;;;;;;;18.64;88.41;98941.13;5028951;28;20121;-67
2021/07/14 01:34:58;;;;;;;48.38;41.80;;;;;;;18.62;88.38;98937.78;5028719;28;20037;-67
2021/07/14 01:37:26;;;;;;;43.45;38.00;;;;;;;18.64;88.31;98932.28;5028469;28;20041;-68
2021/07/14 01:39:54;;;;;;;39.97;35.67;;;;;;;18.68;88.34;98941.69;5029840;28;20116;-65
2021/07/14 01:42:23;;;;;;;44.53;34.78;;;;;;;18.69;88.48;98946.03;5032641;28;20397;-65
2021/07/14 01:44:51;;;;;;;49.60;38.85;;;;;;;18.66;88.30;98936.50;5032377;28;20037;-68
2021/07/14 01:47:17;;;;;;;32.25;28.70;;;;;;;18.66;88.60;98938.31;5032452;28;20026;-66
2021/07/14 01:49:43;;;;;;;34.50;29.75;;;;;;;18.66;88.64;98935.66;5032463;28;20118;-67
2021/07/14 01:52:14;;;;;;;34.97;29.10;;;;;;;18.62;88.72;98936.94;5032360;28;20492;-67
2021/07/14 01:54:42;;;;;;;30.77;26.98;;;;;;;18.58;88.39;98923.06;5032274;28;20025;-67
2021/07/14 01:57:08;;;;;;;26.50;23.08;;;;;;;18.52;89.06;98917.47;5031390;28;20068;-67
2021/07/14 01:59:36;;;;;;;26.00;22.70;;;;;;;18.49;88.97;98929.28;5031831;28;20033;-67
2021/07/14 02:02:05;;;;;;;23.95;20.70;;;;;;;18.51;88.98;98923.75;5032060;28;20103;-67
2021/07/14 02:04:33;;;;;;;21.15;18.48;;;;;;;18.54;88.67;98924.31;5031777;28;20030;-66
2021/07/14 02:07:16;;;;;;;23.45;20.95;;;;;;;18.53;88.86;98930.63;5013676;28;20068;-66
2021/07/14 02:09:44;;;;;;;19.40;17.40;;;;;;;18.55;88.45;98928.66;5031737;28;20078;-68
2021/07/14 02:12:15;;;;;;;16.00;14.13;;;;;;;18.60;88.26;98930.91;5031604;28;20045;-66
2021/07/14 02:15:05;;;;;;;15.48;13.77;;;;;;;18.63;88.31;98936.78;5032251;28;20104;-66
2021/07/14 02:17:34;;;;;;;19.52;17.42;;;;;;;18.57;88.13;98947.22;5031730;28;20033;-66
2021/07/14 02:20:15;;;;;;;20.88;18.25;;;;;;;18.50;88.85;98938.13;5031880;28;20041;-66
2021/07/14 02:22:41;;;;;;;26.73;21.63;;;;;;;18.49;88.77;98934.59;5031511;28;20061;-66
2021/07/14 02:25:08;;;;;;;29.73;23.05;;;;;;;18.48;89.07;98938.25;5031427;28;20469;-67
2021/07/14 02:27:33;;;;;;;38.47;29.98;;;;;;;18.46;88.95;98924.22;5031037;28;20057;-66
2021/07/14 02:29:59;;;;;;;46.38;33.03;;;;;;;18.48;89.15;98927.56;4999047;28;20061;-67
2021/07/14 02:32:25;;;;;;;37.13;28.92;;;;;;;18.48;89.06;98924.91;4991998;28;20062;-66
2021/07/14 02:34:55;;;;;;;40.50;29.85;;;;;;;18.43;89.13;98925.38;4991233;28;20498;-67
2021/07/14 02:37:38;;;;;;;38.92;30.58;;;;;;;18.42;89.28;98918.34;4991945;28;20043;-65
2021/07/14 02:40:05;;;;;;;31.70;25.73;;;;;;;18.42;89.53;98922.84;4992110;28;20066;-67
2021/07/14 02:42:33;;;;;;;40.85;29.63;;;;;;;18.42;89.55;98918.34;4991538;28;20058;-68
2021/07/14 02:45:01;;;;;;;37.53;30.20;;;;;;;18.38;89.62;98927.59;4991823;28;20042;-67
2021/07/14 02:47:35;;;;;;;40.03;29.52;;;;;;;18.40;89.88;98917.63;4991664;28;20123;-66
2021/07/14 02:50:01;;;;;;;49.13;35.13;;;;;;;18.38;89.53;98924.94;4974516;28;20045;-66
2021/07/14 02:52:28;;;;;;;55.40;40.53;;;;;;;18.35;89.89;98924.41;4990264;28;20062;-66
2021/07/14 02:54:57;;;;;;;63.80;43.88;;;;;;;18.30;89.63;98921.34;4991629;28;20069;-65
2021/07/14 02:57:26;;;;;;;70.60;52.13;;;;;;;18.23;90.34;98927.25;4991924;28;20035;-65
2021/07/14 02:59:54;;;;;;;67.45;45.45;;;;;;;18.24;90.53;98917.44;4992022;28;20137;-66
2021/07/14 03:02:21;;;;;;;50.10;38.88;;;;;;;18.24;90.56;98918.28;4991383;28;20034;-66
2021/07/14 03:04:51;;;;;;;61.30;43.65;;;;;;;18.24;90.50;98907.59;4991239;28;20042;-66
2021/07/14 03:07:23;;;;;;;67.72;45.25;;;;;;;18.23;90.72;98908.56;4991174;28;20031;-67
2021/07/14 03:09:48;;;;;;;53.47;38.70;;;;;;;18.26;90.73;98909.25;5003843;28;20034;-68
2021/07/14 03:12:18;;;;;;;66.78;46.00;;;;;;;18.27;90.16;98917.13;5010614;28;20053;-68
2021/07/14 03:14:46;;;;;;;71.13;48.30;;;;;;;18.28;90.09;98915.31;5010816;28;20045;-67
2021/07/14 03:17:16;;;;;;;101.25;59.22;;;;;;;18.23;90.29;98919.22;5010501;28;20444;-69
2021/07/14 03:19:43;;;;;;;61.38;45.60;;;;;;;18.25;90.68;98908.44;5010765;28;20030;-67
2021/07/14 03:22:09;;;;;;;61.00;43.00;;;;;;;18.26;90.20;98914.59;5010699;28;20034;-68
2021/07/14 03:24:35;;;;;;;58.17;39.53;;;;;;;18.27;90.46;98910.97;5010669;28;20041;-68
2021/07/14 03:27:02;;;;;;;66.00;43.50;;;;;;;18.29;90.38;98920.50;5010187;28;20038;-68
2021/07/14 03:29:29;;;;;;;62.38;42.53;;;;;;;18.28;90.27;98909.97;4993063;28;20041;-68
2021/07/14 03:31:55;;;;;;;59.25;40.92;;;;;;;18.28;90.29;98905.47;5010370;28;20437;-67
2021/07/14 03:34:21;;;;;;;57.00;39.90;;;;;;;18.28;90.51;98908.13;5011048;28;20079;-67
2021/07/14 03:36:48;;;;;;;54.15;36.50;;;;;;;18.30;90.40;98916.84;5010507;28;20080;-69
2021/07/14 03:39:15;;;;;;;55.58;37.80;;;;;;;18.33;90.50;98921.03;5010340;28;20048;-67
2021/07/14 03:41:40;;;;;;;46.95;33.95;;;;;;;18.36;90.31;98918.06;5010279;28;20049;-68
2021/07/14 03:44:07;;;;;;;55.67;38.10;;;;;;;18.33;89.95;98913.03;5010368;28;20540;-67
2021/07/14 03:46:33;;;;;;;57.17;41.00;;;;;;;18.35;89.99;98927.91;5010070;28;20421;-69
2021/07/14 03:48:59;;;;;;;64.68;47.33;;;;;;;18.30;90.15;98922.16;5010164;28;20191;-67
2021/07/14 03:51:25;;;;;;;66.03;46.85;;;;;;;18.32;90.68;98917.53;5010390;28;20080;-68
2021/07/14 03:53:51;;;;;;;99.68;53.83;;;;;;;18.35;90.31;98919.06;5010416;28;20037;-67
2021/07/14 03:56:17;;;;;;;77.38;52.38;;;;;;;18.35;90.14;98917.22;5009765;28;20030;-69
2021/07/14 03:58:44;;;;;;;110.40;60.83;;;;;;;18.36;89.78;98918.94;5009951;28;20042;-66
2021/07/14 04:01:12;;;;;;;65.25;49.47;;;;;;;18.34;90.02;98920.06;5009916;28;20030;-67
2021/07/14 04:03:39;;;;;;;53.55;43.70;;;;;;;18.34;90.11;98920.06;5009449;28;20041;-68
2021/07/14 04:06:07;;;;;;;52.42;40.42;;;;;;;18.37;90.06;98925.09;5010297;28;20034;-67
2021/07/14 04:08:42;;;;;;;54.75;42.53;;;;;;;18.38;90.05;98930.28;5009696;28;20041;-66
2021/07/14 04:11:07;;;;;;;60.22;41.72;;;;;;;18.40;90.01;98927.47;5008648;28;20046;-67
2021/07/14 04:13:34;;;;;;;61.97;42.95;;;;;;;18.39;90.05;98936.47;4997951;28;20413;-67
2021/07/14 04:15:59;;;;;;;84.15;47.42;;;;;;;18.36;90.07;98929.59;4990185;28;20038;-68
2021/07/14 04:18:25;;;;;;;40.33;30.30;;;;;;;18.36;90.19;98918.94;4989938;28;20470;-66
2021/07/14 04:20:50;;;;;;;42.38;31.05;;;;;;;18.35;89.83;98919.91;4990471;28;20038;-68
2021/07/14 04:23:15;;;;;;;30.02;23.25;;;;;;;18.34;89.94;98922.75;4990614;28;20034;-66
2021/07/14 04:25:41;;;;;;;44.25;32.75;;;;;;;18.30;89.85;98919.50;4991876;28;20038;-67
2021/07/14 04:28:06;;;;;;;58.53;40.08;;;;;;;18.28;90.11;98918.81;4989463;28;20039;-68
2021/07/14 04:30:33;;;;;;;57.55;40.55;;;;;;;18.28;90.52;98915.31;4990019;28;20108;-68
2021/07/14 04:32:58;;;;;;;69.05;47.72;;;;;;;18.30;90.29;98919.50;4989485;28;20042;-68
2021/07/14 04:35:24;;;;;;;84.45;51.35;;;;;;;18.29;90.06;98920.50;4990179;28;20497;-68
2021/07/14 04:37:50;;;;;;;51.10;41.75;;;;;;;18.30;90.39;98918.66;4989614;28;20104;-69
2021/07/14 04:40:16;;;;;;;64.05;42.58;;;;;;;18.31;90.36;98923.88;4990111;28;20364;-69
2021/07/14 04:42:41;;;;;;;40.90;33.60;;;;;;;18.34;90.03;98922.75;4989393;28;20038;-68
2021/07/14 04:45:07;;;;;;;62.17;42.15;;;;;;;18.33;89.98;98919.19;4989321;28;20045;-69
2021/07/14 04:47:32;;;;;;;64.72;44.42;;;;;;;18.29;89.89;98925.00;4989923;28;20037;-69
2021/07/14 04:49:58;;;;;;;133.15;59.92;;;;;;;18.23;90.09;98926.41;4989911;28;20057;-69
2021/07/14 04:52:23;;;;;;;59.83;39.22;;;;;;;18.26;90.50;98935.94;4990999;28;20037;-70
2021/07/14 04:54:49;;;;;;;51.03;37.20;;;;;;;18.26;90.29;98927.94;4989912;28;20030;-69
2021/07/14 04:57:14;;;;;;;56.38;42.60;;;;;;;18.21;90.35;98931.03;4989549;28;20125;-70
2021/07/14 04:59:39;;;;;;;48.33;34.25;;;;;;;18.21;90.54;98926.56;4989376;28;20486;-69
2021/07/14 05:02:06;;;;;;;50.67;38.00;;;;;;;18.23;90.28;98931.75;4989467;28;20038;-69
2021/07/14 05:04:35;;;;;;;54.25;40.08;;;;;;;18.16;90.21;98923.50;5006008;28;20493;-69
2021/07/14 05:07:02;;;;;;;43.20;32.30;;;;;;;18.20;90.25;98919.53;5008589;28;20034;-68
2021/07/14 05:09:27;;;;;;;49.58;33.95;;;;;;;18.26;90.06;98931.44;5009287;28;20056;-69
2021/07/14 05:11:53;;;;;;;45.50;33.88;;;;;;;18.25;90.05;98932.44;5009538;28;20473;-70
2021/07/14 05:14:19;;;;;;;31.08;24.58;;;;;;;18.27;89.82;98934.97;5008923;28;20089;-70
2021/07/14 05:16:44;;;;;;;39.63;27.70;;;;;;;18.30;89.71;98934.69;5012033;28;20045;-69
2021/07/14 05:19:12;;;;;;;27.25;22.48;;;;;;;18.30;89.60;98934.69;4995174;28;20037;-70
2021/07/14 05:21:37;;;;;;;55.35;32.60;;;;;;;18.32;89.41;98932.72;5012699;28;20087;-69
2021/07/14 05:24:03;;;;;;;26.98;21.70;;;;;;;18.29;89.45;98938.34;5012550;28;20125;-68
2021/07/14 05:26:28;;;;;;;24.40;19.95;;;;;;;18.28;89.33;98931.31;5012138;28;20160;-70
2021/07/14 05:28:54;;;;;;;27.13;20.38;;;;;;;18.28;89.15;98926.81;5012732;28;20034;-67
2021/07/14 05:31:19;;;;;;;26.00;17.85;;;;;;;18.27;89.15;98926.97;5012537;28;20468;-66
2021/07/14 05:33:45;;;;;;;26.95;18.95;;;;;;;18.28;89.07;98929.47;5012495;28;20530;-66
2021/07/14 05:36:13;;;;;;;26.88;17.17;;;;;;;18.24;89.43;98931.59;5012641;28;20100;-68
2021/07/14 05:38:39;;;;;;;26.55;18.58;;;;;;;18.20;89.57;98937.38;5012171;28;20117;-69
2021/07/14 05:41:05;;;;;;;19.98;16.33;;;;;;;18.22;89.84;98933.56;5012590;28;20045;-67
2021/07/14 05:43:30;;;;;;;23.50;15.27;;;;;;;18.22;89.94;98944.25;5012262;28;20050;-67
2021/07/14 05:45:56;;;;;;;26.20;16.33;;;;;;;18.21;89.35;98945.25;4995219;28;20121;-68
2021/07/14 05:48:21;;;;;;;26.23;17.20;;;;;;;18.20;89.39;98945.38;5012023;28;20034;-68
2021/07/14 05:50:47;;;;;;;39.17;22.38;;;;;;;18.23;89.43;98950.41;5012692;28;20117;-66
2021/07/14 05:53:12;;;;;;;27.10;13.48;;;;;;;18.20;89.91;98951.56;4994889;28;20049;-67
2021/07/14 05:55:38;;;;;;;20.88;14.95;;;;;;;18.18;89.80;98948.19;5012484;28;20025;-70
2021/07/14 05:58:03;;;;;;;24.63;15.65;;;;;;;18.14;90.15;98945.94;5012245;28;20097;-70
2021/07/14 06:00:29;;;;;;;27.90;15.77;;;;;;;18.13;89.88;98947.78;5012145;28;20045;-67
2021/07/14 06:02:55;;;;;;;17.23;12.40;;;;;;;18.11;90.21;98944.41;5012499;28;20065;-67
2021/07/14 06:05:22;;;;;;;15.80;12.30;;;;;;;18.11;89.65;98949.75;5012241;28;20148;-68
2021/07/14 06:07:47;;;;;;;18.27;11.70;;;;;;;18.09;89.72;98953.53;5012364;28;20045;-66
2021/07/14 06:10:13;;;;;;;14.88;10.23;;;;;;;18.08;89.41;98957.22;4995444;28;20072;-67
2021/07/14 06:12:38;;;;;;;14.40;9.48;;;;;;;18.05;89.64;98949.50;5012831;28;20026;-66
2021/07/14 06:15:05;;;;;;;14.48;9.93;;;;;;;18.06;89.36;98956.50;5012409;28;20065;-69
2021/07/14 06:17:30;;;;;;;14.95;10.73;;;;;;;18.06;89.37;98960.00;4995030;28;20445;-69
2021/07/14 06:19:56;;;;;;;10.80;8.10;;;;;;;18.09;88.88;98958.88;5014088;28;20034;-69
2021/07/14 06:22:21;;;;;;;14.25;10.55;;;;;;;18.02;89.09;98955.97;5012862;28;20041;-70
2021/07/14 06:24:46;;;;;;;14.98;7.93;;;;;;;18.07;89.00;98959.03;5012224;28;20066;-69
2021/07/14 06:27:12;;;;;;;12.13;9.18;;;;;;;18.09;88.97;98962.41;5011818;28;20049;-70
2021/07/14 06:29:38;;;;;;;9.30;7.88;;;;;;;18.07;88.96;98958.19;5009266;28;20022;-71
2021/07/14 06:32:04;;;;;;;10.90;8.38;;;;;;;18.09;88.87;98961.53;5011767;28;20041;-70
2021/07/14 06:34:30;;;;;;;12.88;9.23;;;;;;;18.09;88.94;98958.88;5012396;28;20343;-68
2021/07/14 06:36:56;;;;;;;18.85;15.70;;;;;;;18.13;89.37;98968.28;4995080;28;20046;-70
2021/07/14 06:39:21;;;;;;;19.27;11.68;;;;;;;18.12;88.79;98970.13;5011980;28;20026;-69
2021/07/14 06:41:46;;;;;;;9.68;7.53;;;;;;;18.13;89.37;98961.13;5012083;28;20116;-69
2021/07/14 06:44:12;;;;;;;9.80;8.35;;;;;;;18.13;88.75;98968.28;5012350;28;20042;-70
2021/07/14 06:46:37;;;;;;;12.32;9.20;;;;;;;18.10;89.06;98966.75;5014272;28;20150;-69
2021/07/14 06:49:03;;;;;;;8.75;6.30;;;;;;;18.07;89.01;98969.72;4995629;28;20040;-70
2021/07/14 06:51:29;;;;;;;8.07;6.78;;;;;;;18.09;89.12;98966.88;5012576;28;20115;-69
2021/07/14 06:53:54;;;;;;;10.70;7.72;;;;;;;18.08;88.86;98960.72;5011630;28;20034;-70
2021/07/14 06:56:20;;;;;;;11.27;7.15;;;;;;;18.11;89.11;98965.75;5007048;28;20504;-70
2021/07/14 06:58:45;;;;;;;8.73;7.20;;;;;;;18.13;88.67;98974.44;5007858;28;20036;-67
2021/07/14 07:01:11;;;;;;;11.38;7.28;;;;;;;18.12;88.66;98975.44;5003182;28;20037;-67
2021/07/14 07:03:37;;;;;;;10.95;7.35;;;;;;;18.13;88.68;98977.13;4999900;28;20035;-66
2021/07/14 07:06:05;;;;;;;9.88;5.82;;;;;;;18.14;88.73;98978.81;5010964;28;20038;-69
2021/07/14 07:08:32;;;;;;;10.65;6.53;;;;;;;18.13;88.43;98977.13;5010451;28;20062;-66
2021/07/14 07:10:57;;;;;;;6.57;4.93;;;;;;;18.14;88.70;98973.47;5011615;28;20042;-66
2021/07/14 07:13:23;;;;;;;10.30;5.70;;;;;;;18.17;88.61;98983.03;5010854;28;20481;-66
2021/07/14 07:15:49;;;;;;;9.65;5.30;;;;;;;18.17;88.39;98983.88;5010810;28;20076;-68
2021/07/14 07:18:15;;;;;;;9.38;6.15;;;;;;;18.18;88.26;98985.53;5010506;28;20038;-68
2021/07/14 07:20:41;;;;;;;7.13;5.38;;;;;;;18.18;88.26;98987.38;5010986;28;20030;-67
2021/07/14 07:23:08;;;;;;;7.47;5.97;;;;;;;18.18;88.34;98990.03;4997769;28;20030;-67
2021/07/14 07:25:34;;;;;;;5.72;4.90;;;;;;;18.17;88.70;98988.38;5000692;28;20042;-67
2021/07/14 07:28:02;;;;;;;15.63;13.55;;;;;;;18.20;88.21;98988.91;5004550;28;20042;-68
2021/07/14 07:30:27;;;;;;;8.43;6.65;;;;;;;18.18;88.37;98993.53;5024832;28;20389;-67
2021/07/14 07:32:53;;;;;;;5.93;4.82;;;;;;;18.20;88.75;98994.25;5024228;28;20037;-67
2021/07/14 07:35:18;;;;;;;6.75;5.00;;;;;;;18.21;88.54;98997.75;5025328;28;20088;-69
2021/07/14 07:37:44;;;;;;;5.68;4.65;;;;;;;18.19;88.15;98997.91;5019820;28;20180;-66
2021/07/14 07:40:10;;;;;;;7.55;6.40;;;;;;;18.18;88.05;98987.38;5005185;28;20038;-66
2021/07/14 07:42:36;;;;;;;7.85;6.18;;;;;;;18.18;88.58;98993.53;4986895;28;20037;-66
2021/07/14 07:45:03;;;;;;;14.18;8.40;;;;;;;18.16;88.41;98990.19;5004416;28;20119;-67
2021/07/14 07:47:28;;;;;;;9.07;6.00;;;;;;;18.12;88.94;98991.44;5004545;28;20044;-68
2021/07/14 07:49:54;;;;;;;11.25;8.05;;;;;;;18.15;88.86;98995.66;5004706;28;20033;-68
2021/07/14 07:52:21;;;;;;;7.03;5.70;;;;;;;18.15;88.89;98998.31;4986474;28;20048;-68
2021/07/14 07:54:47;;;;;;;14.38;9.50;;;;;;;18.12;88.68;98996.78;5004555;28;20045;-66
2021/07/14 07:57:13;;;;;;;22.80;7.75;;;;;;;18.12;89.06;98988.78;5003868;28;20051;-66
2021/07/14 07:59:38;;;;;;;6.53;5.28;;;;;;;18.09;88.87;98990.88;5004513;28;20029;-68
2021/07/14 08:02:05;;;;;;;11.15;4.78;;;;;;;18.07;89.08;98991.03;5004510;28;20065;-68
2021/07/14 08:04:31;;;;;;;6.43;3.95;;;;;;;18.08;88.99;98992.72;5004392;28;20042;-72
2021/07/14 08:06:57;;;;;;;7.32;4.60;;;;;;;18.01;89.08;98995.09;5004332;28;20124;-72
2021/07/14 08:09:22;;;;;;;4.70;3.40;;;;;;;18.02;89.47;98999.47;5004542;28;20463;-73
2021/07/14 08:11:48;;;;;;;37.50;31.80;;;;;;;18.05;89.58;99005.50;5001905;28;20042;-72
2021/07/14 08:14:16;;;;;;;15.77;11.88;;;;;;;18.09;89.23;98998.88;5003568;28;20484;-72
2021/07/14 08:16:42;;;;;;;6.00;4.45;;;;;;;18.05;88.83;98998.34;5003594;28;20104;-73
2021/07/14 08:19:08;;;;;;;5.80;4.35;;;;;;;18.03;88.94;99005.63;5023680;28;20413;-71
2021/07/14 08:21:34;;;;;;;7.53;3.42;;;;;;;18.01;89.49;99004.94;5009455;28;20026;-73
2021/07/14 08:23:59;;;;;;;8.63;4.35;;;;;;;18.04;89.32;98996.69;4993059;28;20690;-73
2021/07/14 08:26:25;;;;;;;5.63;2.90;;;;;;;18.06;89.05;98996.50;4984534;28;20764;-73
2021/07/14 08:28:51;;;;;;;5.13;3.40;;;;;;;18.03;88.78;99000.31;4987390;28;20062;-73
2021/07/14 08:31:16;;;;;;;6.43;2.97;;;;;;;18.04;89.61;99002.00;4980841;28;20060;-73
2021/07/14 08:33:42;;;;;;;4.50;3.25;;;;;;;18.05;88.77;99002.84;5002956;28;20693;-73
2021/07/14 08:36:07;;;;;;;5.68;3.13;;;;;;;18.00;88.72;98997.94;5003307;28;20099;-73
2021/07/14 08:38:33;;;;;;;7.05;3.22;;;;;;;17.99;89.39;99001.56;5003600;28;20126;-72
2021/07/14 08:40:59;;;;;;;5.90;3.78;;;;;;;17.99;89.24;99004.22;5004468;28;20034;-72
2021/07/14 08:43:28;;;;;;;4.95;3.35;;;;;;;17.98;89.13;99007.91;5002897;28;20038;-73
2021/07/14 08:45:56;;;;;;;4.60;2.88;;;;;;;17.97;89.11;99004.38;5003430;28;20050;-72
2021/07/14 08:48:22;;;;;;;4.45;3.10;;;;;;;17.96;89.19;99001.84;5002789;28;20045;-71
2021/07/14 08:50:52;;;;;;;6.45;3.63;;;;;;;17.93;89.19;99008.31;4989994;28;20026;-71
2021/07/14 08:53:19;;;;;;;7.10;3.38;;;;;;;17.89;89.39;99001.56;5004557;28;20116;-72
2021/07/14 08:55:46;;;;;;;7.18;2.35;;;;;;;17.85;89.38;99002.84;4998097;28;20029;-72
2021/07/14 08:58:13;;;;;;;7.32;3.10;;;;;;;17.88;89.67;98999.91;4994250;28;20829;-72
2021/07/14 09:00:39;;;;;;;6.40;2.85;;;;;;;17.87;89.23;98998.22;4988469;28;20045;-72
2021/07/14 09:03:05;;;;;;;4.18;2.67;;;;;;;17.88;89.59;99001.72;4988430;28;20794;-74
2021/07/14 09:05:31;;;;;;;4.07;2.20;;;;;;;17.88;89.42;99007.91;4987881;28;20046;-72
2021/07/14 09:07:56;;;;;;;8.60;3.33;;;;;;;17.89;89.25;99003.41;4988602;28;20490;-72
2021/07/14 09:10:22;;;;;;;8.20;2.83;;;;;;;17.94;89.63;99001.16;4978408;28;20034;-68
2021/07/14 09:12:47;;;;;;;7.15;3.45;;;;;;;17.96;89.19;99000.03;5007869;28;20033;-71
2021/07/14 09:15:15;;;;;;;3.67;2.22;;;;;;;17.98;89.49;99006.06;5006095;28;20088;-72
2021/07/14 09:17:45;;;;;;;4.13;2.92;;;;;;;17.95;88.95;99001.03;5007904;28;20184;-73
2021/07/14 09:20:15;;;;;;;6.45;3.08;;;;;;;17.97;89.39;99014.22;5007028;28;20041;-74
2021/07/14 09:22:42;;;;;;;6.55;3.28;;;;;;;17.99;89.22;99002.44;5007387;28;20060;-74
2021/07/14 09:25:15;;;;;;;4.63;3.03;;;;;;;17.99;88.91;99001.56;4989601;28;20133;-73
2021/07/14 09:27:58;;;;;;;9.13;3.42;;;;;;;17.96;88.49;99005.34;5006919;28;20039;-73
2021/07/14 09:30:26;;;;;;;10.40;4.93;;;;;;;17.97;88.72;98995.56;5006599;28;20044;-73
2021/07/14 09:32:57;;;;;;;12.38;6.65;;;;;;;17.98;88.77;98998.06;5007571;28;20426;-73
2021/07/14 09:35:46;;;;;;;4.90;3.45;;;;;;;18.01;89.01;98994.28;5008024;28;20695;-74
2021/07/14 09:38:15;;;;;;;16.50;7.00;;;;;;;18.02;88.74;98995.97;5007989;28;20073;-75
2021/07/14 09:40:44;;;;;;;6.03;4.68;;;;;;;18.03;88.76;98998.47;5008375;28;20038;-73
2021/07/14 09:43:11;;;;;;;7.03;5.13;;;;;;;18.02;88.31;98996.81;5007782;28;20088;-72
2021/07/14 09:45:46;;;;;;;10.10;6.82;;;;;;;18.01;88.51;99004.94;5005362;28;20044;-71
2021/07/14 09:48:25;;;;;;;7.22;6.32;;;;;;;17.97;87.71;99003.56;5014529;28;20104;-73
2021/07/14 09:50:53;;;;;;;6.50;5.82;;;;;;;17.96;87.66;99009.84;4995857;28;20064;-73
2021/07/14 09:53:20;;;;;;;7.60;5.55;;;;;;;17.94;87.42;99014.47;5002001;28;20450;-74
2021/07/14 09:55:48;;;;;;;12.95;7.97;;;;;;;17.95;87.73;99017.03;5007561;28;20794;-73
2021/07/14 09:58:17;;;;;;;11.60;6.53;;;;;;;17.94;87.45;99009.16;5009978;28;20049;-74
2021/07/14 10:00:45;;;;;;;10.32;8.30;;;;;;;17.95;87.18;99017.03;5006191;28;20042;-73
2021/07/14 10:03:20;;;;;;;6.88;6.07;;;;;;;17.97;87.50;99024.88;5007052;28;20092;-71
2021/07/14 10:05:46;;;;;;;11.73;9.77;;;;;;;17.99;87.43;99017.56;4999876;28;20033;-72
2021/07/14 10:08:13;;;;;;;8.60;6.82;;;;;;;17.97;86.71;99019.56;4998507;28;20037;-73
2021/07/14 10:10:38;;;;;;;14.13;9.55;;;;;;;17.95;87.02;99018.84;5014161;28;20043;-73
2021/07/14 10:13:08;;;;;;;8.93;7.63;;;;;;;17.94;86.84;99023.34;5026949;28;20038;-73
2021/07/14 10:15:34;;;;;;;11.57;9.77;;;;;;;17.93;86.56;99029.66;5009376;28;20038;-72
2021/07/14 10:17:59;;;;;;;11.38;10.15;;;;;;;17.94;86.84;99027.81;4981504;28;20096;-72
2021/07/14 10:20:26;;;;;;;9.10;8.13;;;;;;;17.89;86.54;99030.91;4987554;28;20053;-72
2021/07/14 10:22:57;;;;;;;12.25;10.32;;;;;;;17.81;86.49;99020.09;5002037;28;20033;-72
2021/07/14 10:25:23;;;;;;;11.57;10.13;;;;;;;17.80;87.11;99027.28;5006583;28;20042;-73
2021/07/14 10:27:50;;;;;;;11.40;9.25;;;;;;;17.77;86.62;99024.00;5005065;28;20037;-73
2021/07/14 10:30:18;;;;;;;10.18;8.00;;;;;;;17.73;86.72;99025.28;4987172;28;20491;-72
2021/07/14 10:32:45;;;;;;;9.05;7.97;;;;;;;17.76;87.25;99022.31;5007152;28;20042;-73
2021/07/14 10:35:14;;;;;;;11.93;9.75;;;;;;;17.77;87.23;99021.31;5007033;28;20549;-74
2021/07/14 10:37:44;;;;;;;14.50;11.52;;;;;;;17.76;86.67;99025.00;5006353;28;20033;-73
2021/07/14 10:40:10;;;;;;;9.70;8.05;;;;;;;17.72;86.51;99019.09;4988583;28;20045;-74
2021/07/14 10:42:36;;;;;;;10.07;8.88;;;;;;;17.73;86.81;99015.44;5006054;28;20401;-69
2021/07/14 10:45:03;;;;;;;14.23;11.32;;;;;;;17.73;86.91;99019.94;4988705;28;20470;-70
2021/07/14 10:47:29;;;;;;;10.05;8.48;;;;;;;17.75;87.11;99025.97;4994973;28;20042;-69
2021/07/14 10:49:55;;;;;;;12.50;9.45;;;;;;;17.79;86.94;99020.22;4986425;28;20248;-71
2021/07/14 10:52:23;;;;;;;11.25;8.82;;;;;;;17.80;86.91;99013.94;4986596;28;20137;-75
2021/07/14 10:54:50;;;;;;;15.30;10.95;;;;;;;17.77;86.71;99027.53;4969169;28;20418;-70
2021/07/14 10:57:16;;;;;;;11.77;9.43;;;;;;;17.76;86.89;99023.16;4997994;28;20053;-68
2021/07/14 10:59:44;;;;;;;9.95;8.27;;;;;;;17.77;87.03;99024.88;5013547;28;20037;-69
2021/07/14 11:02:14;;;;;;;11.13;8.73;;;;;;;17.76;86.74;99028.50;5006342;28;20041;-68
2021/07/14 11:04:39;;;;;;;11.75;9.93;;;;;;;17.71;86.11;99032.56;5002556;28;20034;-69
2021/07/14 11:07:07;;;;;;;10.23;9.15;;;;;;;17.68;86.94;99027.53;5005976;28;20045;-69
2021/07/14 11:09:35;;;;;;;15.02;10.77;;;;;;;17.61;86.50;99035.22;5005627;28;20827;-69
2021/07/14 11:12:04;;;;;;;14.38;10.70;;;;;;;17.62;86.86;99031.56;4987800;28;20045;-67
2021/07/14 11:14:38;;;;;;;17.35;11.57;;;;;;;17.60;86.73;99037.06;5004575;28;20030;-68
2021/07/14 11:17:05;;;;;;;22.88;15.52;;;;;;;17.48;86.93;99022.16;5005024;28;20459;-70
2021/07/14 11:19:49;;;;;;;13.23;10.30;;;;;;;17.50;87.08;99030.88;5003926;28;20046;-70
2021/07/14 11:22:42;;;;;;;20.73;13.25;;;;;;;17.47;87.25;99023.13;5005275;28;20533;-68
2021/07/14 11:25:09;;;;;;;21.30;14.00;;;;;;;17.46;87.33;99016.13;5001017;28;20056;-68
2021/07/14 11:27:34;;;;;;;13.70;10.55;;;;;;;17.46;88.19;99023.28;4999746;28;20042;-68
2021/07/14 11:30:02;;;;;;;17.27;13.25;;;;;;;17.47;87.98;99019.63;5005177;28;20149;-68